Time;durP1;ratioP1;P1;durP2;ratioP2;P2;SDS_P1;SDS_P2;PMS_P1;PMS_P2;Temp;Humidity;BMP_temperature;BMP_pressure;BME280_temperature;BME280_humidity;BME280_pressure;Samples;Min_cycle;Max_cycle;Signal;HPM_P1;HPM_P2
2020/12/17 00:01:34;;;;;;;44.07;19.97;;;1.90;99.90;;;;;;4125193;28;20346;-38
2020/12/17 00:03:35;;;;;;;42.10;18.63;;;1.90;99.90;;;;;;4124799;28;20283;-43
2020/12/17 00:05:36;;;;;;;45.17;20.87;;;1.90;99.90;;;;;;4124966;28;20315;-47
2020/12/17 00:07:38;;;;;;;45.40;20.93;;;1.90;99.90;;;;;;4125257;28;20353;-56
2020/12/17 00:09:39;;;;;;;49.60;21.37;;;1.90;99.90;;;;;;4140302;28;20317;-45
2020/12/17 00:11:41;;;;;;;45.50;20.07;;;1.90;99.90;;;;;;4141177;28;20275;-38
2020/12/17 00:13:42;;;;;;;47.43;20.00;;;1.90;99.90;;;;;;4141204;28;20672;-37
2020/12/17 00:15:43;;;;;;;49.30;20.87;;;1.90;99.90;;;;;;4141058;28;20279;-48
2020/12/17 00:17:46;;;;;;;45.03;19.77;;;1.90;99.90;;;;;;4140778;28;20679;-43
2020/12/17 00:19:47;;;;;;;48.93;21.23;;;1.90;99.90;;;;;;4140338;28;20295;-40
2020/12/17 00:21:51;;;;;;;47.27;20.17;;;1.90;99.90;;;;;;4140565;28;21096;-37
2020/12/17 00:23:52;;;;;;;45.13;19.43;;;1.80;99.90;;;;;;4141078;28;20353;-38
2020/12/17 00:25:54;;;;;;;46.70;20.83;;;1.80;99.90;;;;;;4140348;28;20349;-37
2020/12/17 00:27:55;;;;;;;49.47;20.20;;;1.70;99.90;;;;;;4141229;28;20825;-39
2020/12/17 00:29:56;;;;;;;48.87;20.30;;;1.70;99.90;;;;;;4139999;28;20325;-44
2020/12/17 00:31:57;;;;;;;45.57;20.87;;;1.70;99.90;;;;;;4140886;28;20267;-40
2020/12/17 00:33:58;;;;;;;49.80;19.83;;;1.70;99.90;;;;;;4140726;28;20759;-39
2020/12/17 00:35:59;;;;;;;51.07;22.90;;;1.70;99.90;;;;;;4140992;28;20263;-45
2020/12/17 00:38:00;;;;;;;49.13;20.43;;;1.70;99.90;;;;;;4140673;28;20322;-38
2020/12/17 00:40:04;;;;;;;51.70;21.33;;;1.70;99.90;;;;;;4140781;28;21149;-48
2020/12/17 00:42:06;;;;;;;44.23;19.10;;;1.70;99.90;;;;;;4155228;28;20757;-39
2020/12/17 00:44:07;;;;;;;46.67;19.77;;;1.80;99.90;;;;;;4140623;28;20267;-43
2020/12/17 00:46:12;;;;;;;43.83;20.07;;;1.70;99.90;;;;;;4140677;28;20664;-38
2020/12/17 00:48:13;;;;;;;45.20;18.93;;;1.70;99.90;;;;;;4138891;28;20283;-49
2020/12/17 00:50:14;;;;;;;46.43;19.93;;;1.80;99.90;;;;;;4140541;28;20767;-43
2020/12/17 00:52:21;;;;;;;44.53;18.77;;;1.80;99.90;;;;;;4140560;28;20325;-45
2020/12/17 00:54:22;;;;;;;43.27;18.80;;;1.80;99.90;;;;;;4140016;28;21171;-40
2020/12/17 00:56:24;;;;;;;47.87;20.90;;;1.80;99.90;;;;;;4140332;28;20269;-42
2020/12/17 00:58:25;;;;;;;45.63;18.77;;;1.70;99.90;;;;;;4140778;28;20295;-43
2020/12/17 01:00:26;;;;;;;51.10;20.83;;;1.70;99.90;;;;;;4140151;28;20264;-39
2020/12/17 01:02:28;;;;;;;46.57;19.53;;;1.70;99.90;;;;;;4140536;28;20597;-40
2020/12/17 01:04:29;;;;;;;50.60;20.40;;;1.60;99.90;;;;;;4139860;28;20267;-38
2020/12/17 01:06:30;;;;;;;50.40;20.10;;;1.60;99.90;;;;;;4140689;28;20267;-51
2020/12/17 01:08:33;;;;;;;48.30;20.37;;;1.60;99.90;;;;;;4140274;28;20275;-39
2020/12/17 01:10:35;;;;;;;44.90;20.00;;;1.70;99.90;;;;;;4139642;28;20281;-40
2020/12/17 01:12:40;;;;;;;46.77;19.63;;;1.60;99.90;;;;;;4140282;28;20345;-37
2020/12/17 01:14:41;;;;;;;43.93;19.03;;;1.60;99.90;;;;;;4138934;28;20259;-46
2020/12/17 01:16:49;;;;;;;50.00;20.50;;;1.70;99.90;;;;;;4139996;28;20691;-40
2020/12/17 01:18:50;;;;;;;49.03;20.47;;;1.60;99.90;;;;;;4139799;28;20303;-38
2020/12/17 01:20:51;;;;;;;47.83;19.50;;;1.60;99.90;;;;;;4140013;28;20683;-42
2020/12/17 01:22:54;;;;;;;49.53;20.07;;;1.60;99.90;;;;;;4139849;28;20329;-42
2020/12/17 01:24:55;;;;;;;44.33;20.53;;;1.70;99.90;;;;;;4139511;28;20280;-41
2020/12/17 01:26:56;;;;;;;47.23;19.00;;;1.70;99.90;;;;;;4140022;28;20287;-38
2020/12/17 01:28:57;;;;;;;51.80;20.77;;;1.70;99.90;;;;;;4140137;28;20283;-42
2020/12/17 01:30:58;;;;;;;52.30;21.60;;;1.70;99.90;;;;;;4138364;28;20267;-58
2020/12/17 01:33:00;;;;;;;48.17;19.20;;;1.70;99.90;;;;;;4139398;28;20268;-39
2020/12/17 01:35:01;;;;;;;45.63;19.67;;;1.70;99.90;;;;;;4137968;28;20325;-38
2020/12/17 01:37:02;;;;;;;41.83;17.90;;;1.70;99.90;;;;;;4139981;28;20354;-41
2020/12/17 01:39:04;;;;;;;47.90;19.80;;;1.60;99.90;;;;;;4133125;28;20354;-38
2020/12/17 01:41:06;;;;;;;45.00;17.33;;;1.60;99.90;;;;;;4123527;28;20346;-43
2020/12/17 01:43:07;;;;;;;43.47;19.07;;;1.60;99.90;;;;;;4123241;28;20294;-43
2020/12/17 01:45:08;;;;;;;47.33;18.90;;;1.60;99.90;;;;;;4123467;28;20334;-36
2020/12/17 01:47:10;;;;;;;49.37;20.20;;;1.60;99.90;;;;;;4123374;28;20280;-38
2020/12/17 01:49:12;;;;;;;49.83;20.27;;;1.60;99.90;;;;;;4123618;28;20334;-37
2020/12/17 01:51:13;;;;;;;46.17;19.10;;;1.60;99.90;;;;;;4123362;28;20772;-41
2020/12/17 01:53:16;;;;;;;47.23;18.73;;;1.60;99.90;;;;;;4123129;28;20331;-38
2020/12/17 01:55:18;;;;;;;40.80;19.20;;;1.60;99.90;;;;;;4123982;28;20327;-45
2020/12/17 01:57:21;;;;;;;45.53;19.53;;;1.60;99.90;;;;;;4123250;28;20272;-37
2020/12/17 01:59:24;;;;;;;48.27;19.47;;;1.50;99.90;;;;;;4123587;28;20296;-44
2020/12/17 02:01:29;;;;;;;50.47;20.17;;;1.50;99.90;;;;;;4123363;28;20339;-43
2020/12/17 02:03:31;;;;;;;45.67;18.93;;;1.50;99.90;;;;;;4123764;28;20925;-39
2020/12/17 02:05:32;;;;;;;45.27;17.73;;;1.60;99.90;;;;;;4122894;28;20276;-44
2020/12/17 02:07:33;;;;;;;56.27;19.33;;;1.60;99.90;;;;;;4123386;28;20358;-41
2020/12/17 02:09:34;;;;;;;49.47;19.33;;;1.60;99.90;;;;;;4122604;28;20276;-41
2020/12/17 02:11:36;;;;;;;47.90;19.87;;;1.60;99.90;;;;;;4123492;28;20292;-39
2020/12/17 02:13:38;;;;;;;49.87;19.83;;;1.60;99.90;;;;;;4123025;28;20758;-44
2020/12/17 02:15:39;;;;;;;51.50;20.17;;;1.60;99.90;;;;;;4123908;28;20343;-38
2020/12/17 02:17:40;;;;;;;51.03;20.77;;;1.60;99.90;;;;;;4123351;28;20756;-39
2020/12/17 02:19:41;;;;;;;48.77;19.10;;;1.60;99.90;;;;;;4124254;28;20358;-53
2020/12/17 02:21:43;;;;;;;54.10;20.83;;;1.70;99.90;;;;;;4123048;28;20272;-39
2020/12/17 02:23:45;;;;;;;58.60;22.57;;;1.60;99.90;;;;;;4123312;28;20275;-39
2020/12/17 02:25:47;;;;;;;47.90;20.80;;;1.60;99.90;;;;;;4123340;28;20284;-37
2020/12/17 02:27:48;;;;;;;54.77;22.10;;;1.60;99.90;;;;;;4123348;28;20392;-50
2020/12/17 02:29:49;;;;;;;53.90;20.77;;;1.60;99.90;;;;;;4123387;28;20346;-44
2020/12/17 02:31:50;;;;;;;53.03;21.57;;;1.60;99.90;;;;;;4122957;28;20274;-38
2020/12/17 02:33:51;;;;;;;53.27;20.60;;;1.50;99.90;;;;;;4123348;28;20282;-42
2020/12/17 02:35:52;;;;;;;55.37;21.20;;;1.50;99.90;;;;;;4123182;28;20323;-36
2020/12/17 02:37:53;;;;;;;54.10;20.47;;;1.50;99.90;;;;;;4123356;28;20280;-38
2020/12/17 02:39:55;;;;;;;49.33;19.83;;;1.50;99.90;;;;;;4122226;28;20846;-52
2020/12/17 02:41:56;;;;;;;52.60;20.83;;;1.60;99.90;;;;;;4124231;28;20338;-37
2020/12/17 02:43:57;;;;;;;53.53;21.03;;;1.50;99.90;;;;;;4126136;28;20327;-39
2020/12/17 02:45:59;;;;;;;55.90;21.30;;;1.50;99.90;;;;;;4127029;28;20288;-37
2020/12/17 02:48:00;;;;;;;54.17;20.97;;;1.60;99.90;;;;;;4133418;28;20329;-42
2020/12/17 02:50:04;;;;;;;54.63;21.70;;;1.50;99.90;;;;;;4142675;28;20267;-38
2020/12/17 02:52:05;;;;;;;53.43;20.23;;;1.50;99.90;;;;;;4142618;28;20275;-42
2020/12/17 02:54:06;;;;;;;51.80;20.67;;;1.50;99.90;;;;;;4140796;28;20279;-48
2020/12/17 02:56:07;;;;;;;56.23;21.03;;;1.50;99.90;;;;;;4142597;28;20687;-41
2020/12/17 02:58:08;;;;;;;52.37;20.10;;;1.50;99.90;;;;;;4142058;28;20276;-42
2020/12/17 03:00:12;;;;;;;53.67;21.47;;;1.50;99.90;;;;;;4142028;28;20291;-40
2020/12/17 03:02:13;;;;;;;52.50;21.37;;;1.40;99.90;;;;;;4141880;28;20355;-36
2020/12/17 03:04:14;;;;;;;60.27;22.33;;;1.40;99.90;;;;;;4140523;28;20288;-53
2020/12/17 03:06:15;;;;;;;52.30;20.67;;;1.40;99.90;;;;;;4141678;28;20763;-38
2020/12/17 03:08:17;;;;;;;58.87;21.87;;;1.40;99.90;;;;;;4142439;28;20306;-44
2020/12/17 03:10:18;;;;;;;55.63;22.10;;;1.40;99.90;;;;;;4139495;28;20259;-54
2020/12/17 03:12:19;;;;;;;54.43;22.07;;;1.40;99.90;;;;;;4142759;28;20334;-37
2020/12/17 03:14:20;;;;;;;54.90;21.67;;;1.40;99.90;;;;;;4141020;28;20271;-38
2020/12/17 03:16:22;;;;;;;63.07;23.53;;;1.40;99.90;;;;;;4142397;28;20763;-37
2020/12/17 03:18:23;;;;;;;51.50;20.40;;;1.40;99.90;;;;;;4141454;28;20801;-39
2020/12/17 03:20:24;;;;;;;50.30;21.67;;;1.40;99.90;;;;;;4141296;28;20703;-46
2020/12/17 03:22:25;;;;;;;56.77;21.53;;;1.40;99.90;;;;;;4141331;28;20326;-38
2020/12/17 03:24:26;;;;;;;52.70;22.40;;;1.40;99.90;;;;;;4141851;28;20354;-40
2020/12/17 03:26:27;;;;;;;58.10;21.93;;;1.40;99.90;;;;;;4142151;28;20317;-37
2020/12/17 03:28:28;;;;;;;55.77;22.40;;;1.40;99.90;;;;;;4141013;28;20343;-40
2020/12/17 03:30:31;;;;;;;61.00;23.83;;;1.40;99.90;;;;;;4141805;28;20365;-36
2020/12/17 03:32:32;;;;;;;63.13;23.00;;;1.40;99.90;;;;;;4141663;28;20272;-39
2020/12/17 03:34:34;;;;;;;81.20;23.27;;;1.30;99.90;;;;;;4141278;28;20272;-47
2020/12/17 03:36:35;;;;;;;61.77;24.17;;;1.40;99.90;;;;;;4141285;28;20271;-38
2020/12/17 03:38:36;;;;;;;62.73;23.30;;;1.30;99.90;;;;;;4141502;28;20264;-45
2020/12/17 03:40:37;;;;;;;64.33;23.00;;;1.30;99.90;;;;;;4141057;28;20307;-44
2020/12/17 03:42:39;;;;;;;60.10;22.93;;;1.30;99.90;;;;;;4142150;28;20255;-42
2020/12/17 03:44:40;;;;;;;69.33;23.87;;;1.30;99.90;;;;;;4141113;28;20279;-42
2020/12/17 03:46:41;;;;;;;63.90;23.53;;;1.30;99.90;;;;;;4141526;28;20330;-40
2020/12/17 03:48:42;;;;;;;60.13;23.63;;;1.30;99.90;;;;;;4141233;28;20260;-38
2020/12/17 03:50:44;;;;;;;73.97;24.80;;;1.20;99.90;;;;;;4130034;28;20916;-43
2020/12/17 03:52:46;;;;;;;66.57;24.03;;;1.30;99.90;;;;;;4124457;28;20323;-38
2020/12/17 03:54:47;;;;;;;66.07;23.57;;;1.30;99.90;;;;;;4124473;28;20260;-38
2020/12/17 03:56:48;;;;;;;71.50;24.73;;;1.20;99.90;;;;;;4125195;28;20264;-37
2020/12/17 03:58:49;;;;;;;72.87;25.73;;;1.30;99.90;;;;;;4124397;28;20272;-37
2020/12/17 04:00:50;;;;;;;68.90;24.73;;;1.30;99.90;;;;;;4124996;28;20279;-38
2020/12/17 04:02:52;;;;;;;68.20;25.10;;;1.30;99.90;;;;;;4124931;28;20982;-43
2020/12/17 04:04:53;;;;;;;74.50;24.83;;;1.30;99.90;;;;;;4125265;28;20310;-38
2020/12/17 04:06:54;;;;;;;79.27;26.23;;;1.30;99.90;;;;;;4124317;28;20284;-47
2020/12/17 04:08:55;;;;;;;81.23;26.20;;;1.30;99.90;;;;;;4126243;28;20338;-38
2020/12/17 04:10:56;;;;;;;81.67;24.83;;;1.20;99.90;;;;;;4124379;28;21200;-38
2020/12/17 04:12:57;;;;;;;82.27;26.03;;;1.20;99.90;;;;;;4125573;28;20748;-45
2020/12/17 04:14:58;;;;;;;73.87;24.97;;;1.20;99.90;;;;;;4124651;28;20338;-38
2020/12/17 04:16:59;;;;;;;77.07;26.77;;;1.20;99.90;;;;;;4125010;28;20331;-49
2020/12/17 04:19:00;;;;;;;83.33;26.37;;;1.20;99.90;;;;;;4124906;28;20750;-40
2020/12/17 04:21:02;;;;;;;80.37;26.47;;;1.20;99.90;;;;;;4124879;28;20683;-40
2020/12/17 04:23:03;;;;;;;72.23;24.63;;;1.20;99.90;;;;;;4125067;28;20284;-37
2020/12/17 04:25:04;;;;;;;71.63;25.90;;;1.20;99.90;;;;;;4124426;28;20280;-41
2020/12/17 04:27:05;;;;;;;75.47;26.10;;;1.10;99.90;;;;;;4124949;28;20276;-38
2020/12/17 04:29:06;;;;;;;79.73;26.93;;;1.20;99.90;;;;;;4124956;28;20348;-41
2020/12/17 04:31:08;;;;;;;86.33;27.40;;;1.20;99.90;;;;;;4124863;28;20315;-41
2020/12/17 04:33:09;;;;;;;91.30;26.80;;;1.20;99.90;;;;;;4122890;28;20260;-40
2020/12/17 04:35:10;;;;;;;83.13;28.47;;;1.20;99.90;;;;;;4124846;28;20334;-51
2020/12/17 04:37:11;;;;;;;85.47;26.60;;;1.10;99.90;;;;;;4124353;28;20264;-42
2020/12/17 04:39:12;;;;;;;79.70;25.47;;;1.10;99.90;;;;;;4124729;28;21068;-51
2020/12/17 04:41:18;;;;;;;89.17;28.43;;;1.20;99.90;;;;;;4126057;28;20322;-39
2020/12/17 04:43:19;;;;;;;88.20;27.60;;;1.10;99.90;;;;;;4124792;28;20288;-37
2020/12/17 04:45:20;;;;;;;80.37;26.33;;;1.20;99.90;;;;;;4124700;28;20672;-39
2020/12/17 04:47:21;;;;;;;88.87;28.13;;;1.20;99.90;;;;;;4125732;28;20268;-38
2020/12/17 04:49:32;;;;;;;85.00;27.77;;;1.20;99.90;;;;;;4124433;28;20269;-42
2020/12/17 04:51:35;;;;;;;85.35;28.40;;;1.10;99.90;;;;;;4124610;28;20763;-42
2020/12/17 04:53:37;;;;;;;87.23;27.10;;;1.20;99.90;;;;;;4123758;28;20381;-50
2020/12/17 04:55:40;;;;;;;88.27;28.17;;;1.10;99.90;;;;;;4128466;28;20279;-39
2020/12/17 04:57:45;;;;;;;83.70;27.80;;;1.10;99.90;;;;;;4139780;28;20318;-38
2020/12/17 04:59:48;;;;;;;86.07;29.33;;;1.10;99.90;;;;;;4139951;28;20303;-38
2020/12/17 05:01:57;;;;;;;74.00;24.70;;;1.10;99.90;;;;;;4139740;28;20321;-38
2020/12/17 05:03:58;;;;;;;80.17;26.07;;;1.10;99.90;;;;;;4139765;28;20306;-37
2020/12/17 05:06:06;;;;;;;87.43;28.47;;;1.20;99.90;;;;;;4139966;28;20264;-38
2020/12/17 05:08:07;;;;;;;87.10;30.57;;;1.30;99.90;;;;;;4138477;28;20854;-37
2020/12/17 05:10:08;;;;;;;83.77;27.43;;;1.30;99.90;;;;;;4139944;28;20280;-36
2020/12/17 05:12:10;;;;;;;79.43;26.30;;;1.30;99.90;;;;;;4140188;28;20341;-40
2020/12/17 05:14:12;;;;;;;74.93;25.90;;;1.30;99.90;;;;;;4139945;28;20317;-38
2020/12/17 05:16:14;;;;;;;85.47;26.10;;;1.30;99.90;;;;;;4135756;28;20275;-38
2020/12/17 05:18:15;;;;;;;69.03;24.97;;;1.20;99.90;;;;;;4139554;28;20271;-37
2020/12/17 05:20:16;;;;;;;73.80;22.53;;;1.20;99.90;;;;;;4138237;28;20303;-37
2020/12/17 05:22:18;;;;;;;81.27;27.03;;;1.30;99.90;;;;;;4138655;28;20259;-40
2020/12/17 05:24:27;;;;;;;76.77;23.60;;;1.20;99.90;;;;;;4139496;28;20330;-39
2020/12/17 05:26:29;;;;;;;73.93;26.80;;;1.20;99.90;;;;;;4140914;28;20306;-38
2020/12/17 05:28:31;;;;;;;78.03;25.17;;;1.20;99.90;;;;;;4139523;28;20287;-41
2020/12/17 05:30:34;;;;;;;73.50;25.43;;;1.20;99.90;;;;;;4140088;28;20272;-37
2020/12/17 05:32:35;;;;;;;74.53;24.53;;;1.20;99.90;;;;;;4139424;28;20338;-37
2020/12/17 05:34:37;;;;;;;68.33;23.90;;;1.20;99.90;;;;;;4133225;28;20618;-40
2020/12/17 05:36:44;;;;;;;65.53;23.30;;;1.20;99.90;;;;;;4123054;28;20822;-37
2020/12/17 05:38:45;;;;;;;71.90;22.60;;;1.30;99.90;;;;;;4122942;28;20326;-37
2020/12/17 05:40:47;;;;;;;60.90;23.53;;;1.30;99.90;;;;;;4122922;28;20853;-40
2020/12/17 05:42:49;;;;;;;62.93;21.60;;;1.30;99.90;;;;;;4123105;28;20338;-38
2020/12/17 05:44:50;;;;;;;59.50;21.77;;;1.30;99.90;;;;;;4123435;28;20280;-42
2020/12/17 05:46:51;;;;;;;66.93;21.67;;;1.30;99.90;;;;;;4122998;28;20272;-43
2020/12/17 05:48:52;;;;;;;65.50;22.47;;;1.30;99.90;;;;;;4122996;28;20283;-38
2020/12/17 05:51:00;;;;;;;66.53;22.77;;;1.40;99.90;;;;;;4135518;28;20291;-48
2020/12/17 05:53:02;;;;;;;61.80;24.37;;;1.40;99.90;;;;;;4139277;28;20267;-38
2020/12/17 05:55:04;;;;;;;56.23;20.03;;;1.40;99.90;;;;;;4138934;28;20329;-47
2020/12/17 05:57:13;;;;;;;61.73;22.50;;;1.50;99.90;;;;;;4140544;28;21064;-46
2020/12/17 05:59:21;;;;;;;60.87;22.87;;;1.50;99.90;;;;;;4139169;28;20290;-43
2020/12/17 06:01:27;;;;;;;59.20;22.20;;;1.50;99.90;;;;;;4138938;28;20287;-43
2020/12/17 06:03:28;;;;;;;51.17;18.13;;;1.50;99.90;;;;;;4138399;28;20283;-44
2020/12/17 06:05:31;;;;;;;54.50;20.00;;;1.50;99.90;;;;;;4138913;28;20756;-43
2020/12/17 06:07:48;;;;;;;57.83;22.50;;;1.40;99.90;;;;;;4136954;28;20433;-53
2020/12/17 06:09:58;;;;;;;56.43;20.67;;;1.40;99.90;;;;;;4139521;28;20311;-40
2020/12/17 06:12:00;;;;;;;59.27;20.10;;;1.40;99.90;;;;;;4138749;28;20306;-38
2020/12/17 06:14:02;;;;;;;48.27;18.10;;;1.40;99.90;;;;;;4139133;28;20272;-42
2020/12/17 06:16:05;;;;;;;53.93;18.50;;;1.40;99.90;;;;;;4138280;28;20329;-36
2020/12/17 06:18:11;;;;;;;61.13;23.37;;;1.40;99.90;;;;;;4139340;28;20325;-40
2020/12/17 06:20:13;;;;;;;58.87;22.07;;;1.40;99.90;;;;;;4137701;28;20299;-42
2020/12/17 06:22:14;;;;;;;51.47;18.27;;;1.40;99.90;;;;;;4136573;28;20334;-38
2020/12/17 06:24:19;;;;;;;51.30;19.43;;;1.50;99.90;;;;;;4138956;28;20763;-39
2020/12/17 06:26:23;;;;;;;53.20;18.47;;;1.50;99.90;;;;;;4138962;28;20279;-38
2020/12/17 06:28:47;;;;;;;49.13;19.30;;;1.50;99.90;;;;;;4136120;28;20295;-57
2020/12/17 06:30:50;;;;;;;55.10;19.90;;;1.50;99.90;;;;;;4139185;28;20271;-39
2020/12/17 06:32:55;;;;;;;54.53;17.83;;;1.50;99.90;;;;;;4137958;28;20279;-44
2020/12/17 06:34:59;;;;;;;52.00;19.03;;;1.50;99.90;;;;;;4138418;28;20294;-52
2020/12/17 06:37:03;;;;;;;55.40;18.70;;;1.50;99.90;;;;;;4138976;28;20271;-38
2020/12/17 06:39:05;;;;;;;59.30;20.70;;;1.50;99.90;;;;;;4138785;28;20330;-48
2020/12/17 06:41:18;;;;;;;64.43;24.53;;;1.50;99.90;;;;;;4138722;28;20303;-42
2020/12/17 06:43:31;;;;;;;65.93;22.90;;;1.50;99.90;;;;;;4139052;28;21026;-38
2020/12/17 06:45:33;;;;;;;66.67;23.33;;;1.50;99.90;;;;;;4138636;28;20342;-43
2020/12/17 06:47:34;;;;;;;61.50;21.07;;;1.50;99.90;;;;;;4137706;28;20936;-49
2020/12/17 06:49:36;;;;;;;74.23;24.13;;;1.50;99.90;;;;;;4139079;28;20279;-40
2020/12/17 06:51:40;;;;;;;52.77;19.10;;;1.50;99.90;;;;;;4135029;28;20323;-39
2020/12/17 06:53:42;;;;;;;60.63;20.27;;;1.50;99.90;;;;;;4134988;28;20272;-37
2020/12/17 06:55:49;;;;;;;52.47;20.40;;;1.50;99.90;;;;;;4127486;28;20317;-36
2020/12/17 06:57:51;;;;;;;55.20;19.97;;;1.50;99.90;;;;;;4139058;28;20322;-36
2020/12/17 07:00:07;;;;;;;58.63;19.80;;;1.60;99.90;;;;;;4138045;28;20353;-37
2020/12/17 07:02:08;;;;;;;50.40;18.50;;;1.60;99.90;;;;;;4122608;28;20311;-39
2020/12/17 07:04:10;;;;;;;57.30;19.10;;;1.60;99.90;;;;;;4122661;28;20276;-36
2020/12/17 07:06:18;;;;;;;53.27;18.37;;;1.60;99.90;;;;;;4122996;28;20377;-45
2020/12/17 07:08:35;;;;;;;52.10;18.87;;;1.60;99.90;;;;;;4126600;28;20399;-38
2020/12/17 07:10:38;;;;;;;65.10;21.43;;;1.60;99.90;;;;;;4122775;28;20280;-44
2020/12/17 07:12:40;;;;;;;54.07;18.10;;;1.60;99.90;;;;;;4122125;28;20331;-52
2020/12/17 07:14:41;;;;;;;47.67;18.67;;;1.60;99.90;;;;;;4123221;28;20276;-37
2020/12/17 07:16:53;;;;;;;51.87;19.10;;;1.60;99.90;;;;;;4122337;28;20727;-58
2020/12/17 07:19:40;;;;;;;53.17;20.27;;;1.60;99.90;;;;;;4122965;28;20272;-37
2020/12/17 07:21:41;;;;;;;63.63;19.63;;;1.60;99.90;;;;;;4131121;28;20341;-37
2020/12/17 07:23:42;;;;;;;46.23;17.90;;;1.60;99.90;;;;;;4140058;28;20322;-39
2020/12/17 07:25:43;;;;;;;52.60;18.83;;;1.60;99.90;;;;;;4130388;28;20269;-45
2020/12/17 07:27:50;;;;;;;54.73;19.27;;;1.60;99.90;;;;;;4134751;28;20397;-38
2020/12/17 07:29:59;;;;;;;52.90;18.67;;;1.60;99.90;;;;;;4138969;28;20279;-38
2020/12/17 07:32:32;;;;;;;54.67;19.13;;;1.60;99.90;;;;;;4139094;28;20385;-34
2020/12/17 07:34:34;;;;;;;49.00;17.03;;;1.60;99.90;;;;;;4140225;28;20344;-38
2020/12/17 07:36:47;;;;;;;46.77;17.63;;;1.60;99.90;;;;;;4142045;28;20268;-35
2020/12/17 07:38:48;;;;;;;41.80;17.13;;;1.60;99.90;;;;;;4141417;28;20279;-39
2020/12/17 07:40:53;;;;;;;58.10;17.93;;;1.50;99.90;;;;;;4140489;28;20300;-36
2020/12/17 07:43:14;;;;;;;45.07;16.70;;;1.60;99.90;;;;;;4140614;28;20276;-35
2020/12/17 07:45:15;;;;;;;46.55;17.67;;;1.60;99.90;;;;;;4141304;28;20275;-33
2020/12/17 07:47:20;;;;;;;46.90;17.70;;;1.60;99.90;;;;;;4140651;28;20108;-36
2020/12/17 07:49:30;;;;;;;44.53;16.67;;;1.60;99.90;;;;;;4141298;28;20625;-38
2020/12/17 07:51:33;;;;;;;50.65;18.38;;;1.60;99.90;;;;;;4130750;28;20276;-38
2020/12/17 07:53:35;;;;;;;60.27;19.37;;;1.60;99.90;;;;;;4125669;28;20808;-39
2020/12/17 07:55:38;;;;;;;44.60;16.47;;;1.70;99.90;;;;;;4124571;28;21160;-38
2020/12/17 07:57:42;;;;;;;52.43;16.33;;;1.70;99.90;;;;;;4125655;28;20272;-45
2020/12/17 07:59:43;;;;;;;53.43;19.33;;;1.70;99.90;;;;;;4124838;28;20272;-40
2020/12/17 08:01:44;;;;;;;52.87;18.93;;;1.70;99.90;;;;;;4125386;28;20645;-47
2020/12/17 08:03:50;;;;;;;58.93;19.10;;;1.70;99.90;;;;;;4124879;28;20601;-52
2020/12/17 08:05:52;;;;;;;55.60;17.13;;;1.80;99.90;;;;;;4125509;28;20311;-44
2020/12/17 08:07:53;;;;;;;44.23;16.73;;;1.80;99.90;;;;;;4126455;28;20272;-51
2020/12/17 08:09:58;;;;;;;44.97;17.13;;;1.80;99.90;;;;;;4133152;28;20849;-40
2020/12/17 08:12:00;;;;;;;45.23;16.87;;;1.80;99.90;;;;;;4141320;28;20271;-46
2020/12/17 08:14:08;;;;;;;48.60;18.97;;;1.80;99.90;;;;;;4140444;28;20271;-53
2020/12/17 08:16:10;;;;;;;45.97;17.53;;;1.80;99.90;;;;;;4141205;28;20268;-45
2020/12/17 08:18:12;;;;;;;44.20;17.53;;;1.80;99.90;;;;;;4139648;28;20264;-44
2020/12/17 08:20:17;;;;;;;44.47;16.73;;;1.80;99.90;;;;;;4141190;28;20390;-39
2020/12/17 08:22:18;;;;;;;43.40;17.00;;;1.80;99.90;;;;;;4140379;28;20327;-49
2020/12/17 08:24:25;;;;;;;51.70;19.90;;;1.80;99.90;;;;;;4143877;28;20270;-39
2020/12/17 08:26:28;;;;;;;49.00;19.50;;;1.80;99.90;;;;;;4156697;28;20270;-47
2020/12/17 08:28:34;;;;;;;51.33;19.17;;;1.80;99.90;;;;;;4157223;28;20294;-39
2020/12/17 08:30:35;;;;;;;49.27;17.33;;;1.80;99.90;;;;;;4144313;28;20794;-46
2020/12/17 08:32:44;;;;;;;47.67;17.27;;;1.80;99.90;;;;;;4138383;28;20295;-46
2020/12/17 08:34:55;;;;;;;54.27;19.10;;;1.80;99.90;;;;;;4140106;28;20360;-45
2020/12/17 08:36:57;;;;;;;54.67;19.70;;;1.80;99.90;;;;;;4140911;28;20275;-45
2020/12/17 08:39:10;;;;;;;56.73;20.03;;;1.80;99.90;;;;;;4139720;28;20268;-39
2020/12/17 08:41:17;;;;;;;59.33;22.47;;;1.80;99.90;;;;;;4140257;28;20845;-48
2020/12/17 08:43:19;;;;;;;57.30;21.70;;;1.80;99.90;;;;;;4140094;28;20870;-51
2020/12/17 08:45:23;;;;;;;59.30;21.87;;;1.70;99.90;;;;;;4141152;28;20281;-57
2020/12/17 08:47:25;;;;;;;61.00;21.97;;;1.70;99.90;;;;;;4139560;28;20279;-52
2020/12/17 08:49:28;;;;;;;74.10;22.57;;;1.70;99.90;;;;;;4140220;28;20283;-51
2020/12/17 08:51:31;;;;;;;57.13;20.30;;;1.80;99.90;;;;;;4139687;28;20287;-49
2020/12/17 08:53:35;;;;;;;68.00;22.80;;;1.70;99.90;;;;;;4140630;28;20268;-44
2020/12/17 08:55:36;;;;;;;57.10;21.80;;;1.70;99.90;;;;;;4141481;28;20342;-49
2020/12/17 08:57:38;;;;;;;55.60;21.77;;;1.70;99.90;;;;;;4138462;28;20782;-49
2020/12/17 08:59:39;;;;;;;58.47;23.27;;;1.70;99.90;;;;;;4138327;28;20287;-45
2020/12/17 09:01:43;;;;;;;61.70;23.83;;;1.80;99.90;;;;;;4140101;28;20353;-48
2020/12/17 09:03:48;;;;;;;54.40;21.50;;;1.80;99.90;;;;;;4139772;28;20309;-41
2020/12/17 09:06:22;;;;;;;55.63;21.53;;;1.80;99.90;;;;;;4137396;28;20280;-48
2020/12/17 09:08:23;;;;;;;53.60;22.17;;;1.90;99.90;;;;;;4126971;28;20814;-47
2020/12/17 09:10:24;;;;;;;53.50;19.87;;;1.90;99.90;;;;;;4134305;28;20346;-44
2020/12/17 09:12:29;;;;;;;60.87;19.70;;;1.90;99.90;;;;;;4123527;28;21285;-48
2020/12/17 09:14:34;;;;;;;47.00;20.13;;;1.90;99.90;;;;;;4126812;28;20322;-45
2020/12/17 09:16:40;;;;;;;52.53;19.73;;;1.90;99.90;;;;;;4123358;28;20283;-53
2020/12/17 09:18:54;;;;;;;56.93;18.87;;;1.90;99.90;;;;;;4123412;28;20322;-52
2020/12/17 09:21:10;;;;;;;59.10;18.93;;;1.90;99.90;;;;;;4123491;28;20354;-49
2020/12/17 09:23:11;;;;;;;57.20;20.37;;;2.00;99.90;;;;;;4123615;28;20312;-52
2020/12/17 09:25:27;;;;;;;63.03;22.50;;;2.00;99.90;;;;;;4123896;28;20322;-43
2020/12/17 09:27:33;;;;;;;55.63;19.63;;;2.00;99.90;;;;;;4133439;28;20728;-48
2020/12/17 09:29:34;;;;;;;50.67;18.03;;;2.10;99.90;;;;;;4139718;28;20271;-48
2020/12/17 09:31:36;;;;;;;49.80;19.37;;;2.00;99.90;;;;;;4139847;28;20268;-52
2020/12/17 09:33:37;;;;;;;56.53;18.97;;;2.10;99.90;;;;;;4139985;28;20318;-49
2020/12/17 09:35:39;;;;;;;45.57;18.13;;;2.10;99.90;;;;;;4155066;28;20259;-39
2020/12/17 09:37:41;;;;;;;57.70;19.10;;;2.00;99.90;;;;;;4156564;28;20301;-49
2020/12/17 09:39:46;;;;;;;47.90;17.93;;;2.00;99.90;;;;;;4155079;28;20286;-57
2020/12/17 09:41:52;;;;;;;47.77;16.77;;;2.00;99.90;;;;;;4156183;28;20364;-51
2020/12/17 09:43:53;;;;;;;55.57;20.23;;;2.00;99.90;;;;;;4155179;28;20270;-51
2020/12/17 09:45:56;;;;;;;51.47;18.13;;;2.00;99.90;;;;;;4154679;28;20275;-52
2020/12/17 09:47:57;;;;;;;53.83;18.67;;;2.00;99.90;;;;;;4154940;28;20739;-50
2020/12/17 09:50:12;;;;;;;51.90;19.07;;;2.00;99.90;;;;;;4155109;28;20279;-45
2020/12/17 09:52:14;;;;;;;49.80;18.93;;;2.00;99.90;;;;;;4154220;28;20726;-53
2020/12/17 09:54:15;;;;;;;55.03;17.63;;;2.00;99.90;;;;;;4149782;28;20350;-55
2020/12/17 09:56:16;;;;;;;43.60;17.00;;;2.00;99.90;;;;;;4137937;28;20278;-43
2020/12/17 09:58:17;;;;;;;45.37;16.80;;;2.00;99.90;;;;;;4150055;28;20317;-44
2020/12/17 10:00:18;;;;;;;54.60;19.50;;;2.10;99.90;;;;;;4139419;28;20901;-51
2020/12/17 10:02:19;;;;;;;43.03;17.60;;;2.10;99.90;;;;;;4139290;28;20374;-48
2020/12/17 10:04:20;;;;;;;46.10;16.43;;;2.20;99.90;;;;;;4139100;28;20325;-40
2020/12/17 10:06:22;;;;;;;55.40;18.93;;;2.20;99.90;;;;;;4129719;28;20326;-48
2020/12/17 10:08:23;;;;;;;46.43;15.83;;;2.20;99.90;;;;;;4137169;28;20259;-42
2020/12/17 10:10:25;;;;;;;44.40;16.40;;;2.20;99.90;;;;;;4138693;28;21032;-48
2020/12/17 10:12:26;;;;;;;50.40;18.67;;;2.20;99.90;;;;;;4123681;28;20666;-42
2020/12/17 10:14:28;;;;;;;47.10;15.93;;;2.20;99.90;;;;;;4122503;28;20740;-52
2020/12/17 10:16:30;;;;;;;43.47;17.03;;;2.20;99.90;;;;;;4124196;28;20377;-54
2020/12/17 10:18:31;;;;;;;44.57;16.27;;;2.10;99.90;;;;;;4136514;28;20747;-46
2020/12/17 10:20:32;;;;;;;44.23;16.20;;;2.20;99.90;;;;;;4123420;28;20279;-43
2020/12/17 10:22:33;;;;;;;44.70;17.50;;;2.20;99.90;;;;;;4124125;28;20283;-51
2020/12/17 10:24:35;;;;;;;46.50;18.53;;;2.10;99.90;;;;;;4139135;28;20954;-53
2020/12/17 10:26:36;;;;;;;41.67;16.60;;;2.20;99.90;;;;;;4138085;28;20325;-50
2020/12/17 10:28:37;;;;;;;39.70;16.07;;;2.10;99.90;;;;;;4139733;28;20279;-46
2020/12/17 10:30:38;;;;;;;43.97;16.67;;;2.10;99.90;;;;;;4138477;28;20388;-45
2020/12/17 10:32:41;;;;;;;41.30;17.50;;;2.20;99.90;;;;;;4138878;28;20329;-47